createdAt,value
2022-11-18T00:01:37.073Z,7.07
2022-11-18T00:04:04.342Z,6.50
2022-11-18T00:06:31.392Z,7.43
2022-11-18T00:09:00.553Z,6.70
2022-11-18T00:11:46.786Z,7.70
2022-11-18T00:14:18.844Z,7.07
2022-11-18T00:16:47.045Z,6.97
2022-11-18T00:19:14.985Z,6.40
2022-11-18T00:21:42.477Z,6.70
2022-11-18T00:24:10.830Z,7.13
2022-11-18T00:26:37.878Z,6.50
2022-11-18T00:29:05.044Z,6.97
2022-11-18T00:31:33.288Z,7.03
2022-11-18T00:34:00.181Z,6.93
2022-11-18T00:36:28.479Z,7.13
2022-11-18T00:38:55.545Z,6.37
2022-11-18T00:41:22.634Z,7.37
2022-11-18T00:43:49.865Z,6.70
2022-11-18T00:46:16.826Z,7.13
2022-11-18T00:48:45.123Z,6.90
2022-11-18T00:51:16.116Z,6.10
2022-11-18T00:53:43.614Z,6.90
2022-11-18T00:56:11.291Z,7.20
2022-11-18T00:58:38.586Z,7.50
2022-11-18T01:01:05.974Z,6.77
2022-11-18T01:03:33.347Z,6.37
2022-11-18T01:06:01.623Z,6.90
2022-11-18T01:08:28.597Z,6.70
2022-11-18T01:11:15.510Z,7.80
2022-11-18T01:13:42.427Z,6.90
2022-11-18T01:16:09.390Z,7.17
2022-11-18T01:18:36.388Z,7.50
2022-11-18T01:21:06.320Z,6.73
2022-11-18T01:23:33.462Z,7.37
2022-11-18T01:26:05.189Z,6.90
2022-11-18T01:28:32.732Z,7.03
2022-11-18T01:31:05.015Z,6.30
2022-11-18T01:33:32.098Z,7.10
2022-11-18T01:35:59.080Z,7.13
2022-11-18T01:38:30.147Z,7.17
2022-11-18T01:40:57.222Z,7.07
2022-11-18T01:43:24.585Z,6.93
2022-11-18T01:45:53.912Z,6.63
2022-11-18T01:48:26.533Z,6.93
2022-11-18T01:50:59.117Z,7.03
2022-11-18T01:53:33.691Z,7.57
2022-11-18T01:56:06.315Z,6.17
2022-11-18T01:58:38.986Z,5.90
2022-11-18T02:01:08.269Z,6.37
2022-11-18T02:03:35.988Z,6.27
2022-11-18T02:06:05.368Z,6.80
2022-11-18T02:08:37.445Z,6.63
2022-11-18T02:11:04.945Z,5.03
2022-11-18T02:13:34.687Z,5.60
2022-11-18T02:16:11.395Z,4.90
2022-11-18T02:18:55.270Z,5.67
2022-11-18T02:21:40.983Z,4.43
2022-11-18T02:24:36.710Z,4.47
2022-11-18T02:27:55.351Z,4.63
2022-11-18T02:30:24.135Z,4.70
2022-11-18T02:32:58.218Z,4.60
2022-11-18T02:35:31.899Z,4.63
2022-11-18T02:38:05.339Z,4.03
2022-11-18T02:40:38.618Z,5.10
2022-11-18T02:43:13.479Z,4.60
2022-11-18T02:45:49.383Z,3.90
2022-11-18T02:48:20.062Z,4.60
2022-11-18T02:50:51.301Z,4.33
2022-11-18T02:53:24.059Z,4.30
2022-11-18T02:55:53.709Z,4.10
2022-11-18T02:58:23.189Z,4.13
2022-11-18T03:00:56.394Z,3.83
2022-11-18T03:03:29.454Z,4.73
2022-11-18T03:06:10.209Z,4.20
2022-11-18T03:08:46.071Z,4.00
2022-11-18T03:11:18.153Z,3.90
2022-11-18T03:14:07.203Z,4.07
2022-11-18T03:16:43.970Z,4.00
2022-11-18T03:19:26.327Z,5.03
2022-11-18T03:22:08.235Z,4.57
2022-11-18T03:24:41.300Z,5.50
2022-11-18T03:27:17.487Z,4.77
2022-11-18T03:29:52.267Z,4.70
2022-11-18T03:32:26.785Z,4.67
2022-11-18T03:35:01.994Z,4.93
2022-11-18T03:37:32.771Z,5.40
2022-11-18T03:40:08.954Z,5.03
2022-11-18T03:42:41.391Z,5.13
2022-11-18T03:45:16.307Z,5.30
2022-11-18T03:47:53.994Z,5.20
2022-11-18T03:50:26.609Z,5.17
2022-11-18T03:52:55.162Z,5.33
2022-11-18T03:55:27.852Z,5.30
2022-11-18T03:58:03.469Z,5.43
2022-11-18T04:00:39.567Z,5.33
2022-11-18T04:03:08.439Z,5.60
2022-11-18T04:05:40.264Z,6.70
2022-11-18T04:08:14.795Z,5.83
2022-11-18T04:10:50.770Z,6.60
2022-11-18T04:13:24.415Z,6.87
2022-11-18T04:15:54.227Z,7.53
2022-11-18T04:18:22.665Z,6.90
2022-11-18T04:20:49.650Z,7.20
2022-11-18T04:23:16.713Z,7.23
2022-11-18T04:25:43.799Z,7.50
2022-11-18T04:28:10.770Z,7.10
2022-11-18T04:30:37.826Z,7.90
2022-11-18T04:33:05.148Z,7.47
2022-11-18T04:35:33.445Z,7.03
2022-11-18T04:38:00.457Z,8.23
2022-11-18T04:40:27.446Z,8.10
2022-11-18T04:42:54.401Z,7.83
2022-11-18T04:45:21.339Z,7.33
2022-11-18T04:47:48.262Z,14.03
2022-11-18T04:50:15.398Z,8.43
2022-11-18T04:52:43.770Z,8.20
2022-11-18T04:55:10.746Z,7.97
2022-11-18T04:57:37.739Z,8.37
2022-11-18T05:00:06.756Z,8.60
2022-11-18T05:02:33.730Z,8.07
2022-11-18T05:05:00.658Z,8.50
2022-11-18T05:07:27.632Z,8.50
2022-11-18T05:09:55.952Z,7.77
2022-11-18T05:12:41.518Z,7.67
2022-11-18T05:15:09.168Z,8.17
2022-11-18T05:17:36.193Z,7.73
2022-11-18T05:20:03.716Z,7.93
2022-11-18T05:22:30.820Z,8.87
2022-11-18T05:24:59.144Z,8.80
2022-11-18T05:27:26.198Z,8.50
2022-11-18T05:29:53.187Z,8.63
2022-11-18T05:32:20.122Z,8.63
2022-11-18T05:34:47.130Z,8.43
2022-11-18T05:37:14.246Z,9.00
2022-11-18T05:39:41.285Z,9.13
2022-11-18T05:42:30.503Z,8.63
2022-11-18T05:44:58.787Z,8.33
2022-11-18T05:47:26.987Z,8.90
2022-11-18T05:49:53.953Z,8.33
2022-11-18T05:52:20.930Z,8.70
2022-11-18T05:54:50.696Z,10.23
2022-11-18T05:57:19.031Z,9.07
2022-11-18T05:59:45.976Z,10.50
2022-11-18T06:02:19.640Z,9.37
2022-11-18T06:04:52.830Z,9.27
2022-11-18T06:07:25.161Z,9.53
2022-11-18T06:10:03.699Z,9.13
2022-11-18T06:12:39.658Z,9.13
2022-11-18T06:15:14.799Z,9.17
2022-11-18T06:17:47.636Z,10.07
2022-11-18T06:20:17.447Z,9.53
2022-11-18T06:22:46.653Z,9.50
2022-11-18T06:25:14.948Z,8.93
2022-11-18T06:27:44.112Z,10.20
2022-11-18T06:30:12.809Z,9.67
2022-11-18T06:32:40.026Z,10.10
2022-11-18T06:35:08.508Z,11.37
2022-11-18T06:37:35.488Z,10.20
2022-11-18T06:40:03.611Z,10.47
2022-11-18T06:42:49.492Z,9.83
2022-11-18T06:45:20.443Z,9.70
2022-11-18T06:47:47.522Z,10.03
2022-11-18T06:50:14.694Z,9.57
2022-11-18T06:52:41.657Z,10.77
2022-11-18T06:55:09.469Z,9.63
2022-11-18T06:57:36.463Z,9.60
2022-11-18T07:00:05.064Z,9.60
2022-11-18T07:02:36.901Z,10.37
2022-11-18T07:05:06.276Z,9.87
2022-11-18T07:07:41.494Z,10.13
2022-11-18T07:10:09.951Z,9.80
2022-11-18T07:12:36.917Z,8.93
2022-11-18T07:15:04.611Z,11.07
2022-11-18T07:17:33.032Z,11.30
2022-11-18T07:19:59.973Z,9.83
2022-11-18T07:22:26.988Z,10.73
2022-11-18T07:24:53.921Z,9.23
2022-11-18T07:27:22.055Z,10.23
2022-11-18T07:29:49.000Z,11.30
2022-11-18T07:32:15.963Z,10.57
2022-11-18T07:34:45.739Z,10.77
2022-11-18T07:37:12.709Z,11.00
2022-11-18T07:39:39.695Z,10.20
2022-11-18T07:42:06.636Z,11.37
2022-11-18T07:44:33.735Z,12.53
2022-11-18T07:47:00.963Z,11.90
2022-11-18T07:49:28.403Z,10.83
2022-11-18T07:51:57.180Z,12.80
2022-11-18T07:54:24.202Z,11.40
2022-11-18T07:56:51.164Z,11.23
2022-11-18T07:59:18.406Z,10.90
2022-11-18T08:01:45.570Z,11.70
2022-11-18T08:04:13.249Z,11.47
2022-11-18T08:06:40.691Z,11.00
2022-11-18T08:09:11.317Z,11.40
2022-11-18T08:11:38.439Z,11.33
2022-11-18T08:14:05.598Z,12.80
2022-11-18T08:16:32.616Z,11.77
2022-11-18T08:19:00.727Z,12.27
2022-11-18T08:21:28.360Z,12.67
2022-11-18T08:23:57.645Z,13.70
2022-11-18T08:26:27.101Z,21.97
2022-11-18T08:28:55.723Z,13.90
2022-11-18T08:31:26.187Z,13.67
2022-11-18T08:33:56.368Z,13.30
2022-11-18T08:36:27.382Z,14.17
2022-11-18T08:38:56.511Z,12.67
2022-11-18T08:41:32.718Z,13.70
2022-11-18T08:44:00.230Z,13.03
2022-11-18T08:46:28.463Z,12.67
2022-11-18T08:48:55.461Z,13.30
2022-11-18T08:51:23.011Z,16.23
2022-11-18T08:53:50.150Z,16.40
2022-11-18T08:56:24.236Z,15.60
2022-11-18T08:58:53.570Z,15.00
2022-11-18T09:01:20.819Z,15.03
2022-11-18T09:03:51.869Z,17.83
2022-11-18T09:06:22.780Z,24.93
2022-11-18T09:08:49.879Z,17.47
2022-11-18T09:11:19.633Z,16.60
2022-11-18T09:16:41.499Z,15.33
2022-11-18T09:22:17.605Z,17.90
2022-11-18T09:24:45.417Z,17.90
2022-11-18T09:27:17.000Z,17.63
2022-11-18T09:29:46.065Z,18.23
2022-11-18T09:32:13.337Z,17.13
2022-11-18T09:34:40.335Z,22.33
2022-11-18T09:37:07.711Z,19.50
2022-11-18T09:39:36.374Z,18.57
2022-11-18T09:42:24.397Z,17.87
2022-11-18T09:45:13.489Z,17.73
2022-11-18T09:47:42.935Z,17.57
2022-11-18T09:50:47.825Z,17.10
2022-11-18T09:53:16.067Z,17.50
2022-11-18T09:55:43.474Z,17.43
2022-11-18T09:58:21.193Z,17.93
2022-11-18T10:00:49.896Z,18.10
2022-11-18T10:03:29.425Z,22.57
2022-11-18T10:06:03.610Z,18.47
2022-11-18T10:08:39.599Z,16.73
2022-11-18T10:11:15.100Z,17.73
2022-11-18T10:14:01.155Z,16.27
2022-11-18T10:16:47.122Z,16.37
2022-11-18T10:19:29.141Z,16.30
2022-11-18T10:22:19.656Z,16.87
2022-11-18T10:24:53.503Z,15.70
2022-11-18T10:27:21.761Z,15.63
2022-11-18T10:29:55.516Z,16.63
2022-11-18T10:32:24.249Z,16.13
2022-11-18T10:34:55.390Z,17.40
2022-11-18T10:37:45.437Z,15.20
2022-11-18T10:40:26.309Z,14.87
2022-11-18T10:42:53.678Z,14.17
2022-11-18T10:45:27.999Z,14.13
2022-11-18T10:48:16.319Z,13.80
2022-11-18T10:50:50.456Z,14.23
2022-11-18T10:53:32.831Z,13.20
2022-11-18T10:56:03.149Z,13.20
2022-11-18T10:58:34.298Z,13.57
2022-11-18T11:01:19.698Z,15.10
2022-11-18T11:04:02.288Z,13.47
2022-11-18T11:06:35.280Z,13.40
2022-11-18T11:09:07.459Z,14.97
2022-11-18T11:11:39.792Z,14.63
2022-11-18T11:14:23.390Z,13.50
2022-11-18T11:17:12.370Z,13.17
2022-11-18T11:19:56.807Z,13.37
2022-11-18T11:22:23.997Z,12.30
2022-11-18T11:24:51.110Z,13.50
2022-11-18T11:30:46.703Z,12.33
2022-11-18T11:33:33.098Z,11.97
2022-11-18T11:36:32.776Z,13.93
2022-11-18T11:39:26.571Z,12.50
2022-11-18T11:42:05.960Z,12.83
2022-11-18T11:44:51.109Z,12.60
2022-11-18T11:47:49.257Z,13.13
2022-11-18T11:50:27.654Z,12.13
2022-11-18T11:53:17.235Z,12.53
2022-11-18T11:56:02.812Z,12.83
2022-11-18T11:59:06.206Z,12.27
2022-11-18T12:01:45.189Z,13.50
2022-11-18T12:04:34.432Z,12.70
2022-11-18T12:07:05.914Z,12.10
2022-11-18T12:09:52.522Z,12.03
2022-11-18T12:12:34.287Z,12.30
2022-11-18T12:15:19.218Z,21.63
2022-11-18T12:18:00.033Z,11.50
2022-11-18T12:20:43.556Z,12.80
2022-11-18T12:23:17.884Z,15.73
2022-11-18T12:25:59.588Z,11.80
2022-11-18T12:28:35.579Z,10.83
2022-11-18T12:31:33.964Z,11.80
2022-11-18T12:34:32.772Z,11.80
2022-11-18T12:37:44.487Z,11.20
2022-11-18T12:40:44.810Z,12.00
2022-11-18T12:44:06.637Z,12.20
2022-11-18T12:46:50.236Z,12.27
2022-11-18T12:50:09.971Z,14.30
2022-11-18T12:52:53.015Z,14.00
2022-11-18T12:55:33.449Z,13.77
2022-11-18T12:58:01.679Z,14.37
2022-11-18T13:00:52.125Z,15.30
2022-11-18T13:03:29.004Z,14.43
2022-11-18T13:06:14.894Z,15.70
2022-11-18T13:08:42.685Z,13.90
2022-11-18T13:11:37.097Z,15.23
2022-11-18T13:14:25.820Z,14.77
2022-11-18T13:17:13.285Z,13.33
2022-11-18T13:19:40.621Z,15.20
2022-11-18T13:22:37.125Z,13.60
2022-11-18T13:25:04.754Z,14.27
2022-11-18T13:27:47.580Z,14.27
2022-11-18T13:30:17.278Z,14.40
2022-11-18T13:32:48.346Z,15.20
2022-11-18T13:35:19.936Z,14.67
2022-11-18T13:37:53.270Z,14.83
2022-11-18T13:40:25.160Z,13.47
2022-11-18T13:42:53.236Z,15.17
2022-11-18T13:45:26.107Z,14.77
2022-11-18T13:48:01.416Z,14.70
2022-11-18T13:50:35.495Z,13.50
2022-11-18T13:53:23.136Z,13.23
2022-11-18T13:55:55.280Z,15.13
2022-11-18T13:59:02.500Z,13.57
2022-11-18T14:01:30.102Z,14.87
2022-11-18T14:04:03.820Z,14.03
2022-11-18T14:06:34.680Z,15.67
2022-11-18T14:09:21.229Z,15.37
2022-11-18T14:12:01.781Z,16.57
2022-11-18T14:14:32.725Z,17.17
2022-11-18T14:17:17.661Z,14.17
2022-11-18T14:19:47.253Z,15.30
2022-11-18T14:22:19.587Z,14.93
2022-11-18T14:24:56.892Z,15.97
2022-11-18T14:27:40.064Z,15.73
2022-11-18T14:30:32.734Z,17.77
2022-11-18T14:33:12.621Z,16.03
2022-11-18T14:35:44.309Z,15.57
2022-11-18T14:41:10.618Z,16.73
2022-11-18T14:43:38.288Z,15.13
2022-11-18T14:46:14.465Z,16.07
2022-11-18T14:48:42.555Z,17.13
2022-11-18T14:51:15.293Z,14.93
2022-11-18T14:53:43.768Z,16.93
2022-11-18T14:56:18.169Z,16.07
2022-11-18T14:58:45.166Z,15.67
2022-11-18T15:01:13.264Z,14.20
2022-11-18T15:03:40.500Z,15.20
2022-11-18T15:06:17.453Z,15.27
2022-11-18T15:08:47.679Z,25.03
2022-11-18T15:11:14.921Z,15.20
2022-11-18T15:13:42.681Z,14.77
2022-11-18T15:16:16.231Z,13.37
2022-11-18T15:18:44.927Z,13.83
2022-11-18T15:21:12.034Z,15.10
2022-11-18T15:23:40.555Z,12.37
2022-11-18T15:26:19.370Z,12.37
2022-11-18T15:28:50.020Z,13.40
2022-11-18T15:31:18.544Z,13.63
2022-11-18T15:33:46.457Z,12.90
2022-11-18T15:36:16.179Z,12.40
2022-11-18T15:38:45.384Z,12.13
2022-11-18T15:41:17.489Z,11.87
2022-11-18T15:43:44.663Z,12.27
2022-11-18T15:46:11.684Z,12.17
2022-11-18T15:48:38.661Z,12.83
2022-11-18T15:51:11.465Z,13.03
2022-11-18T15:53:39.716Z,11.80
2022-11-18T15:56:28.079Z,12.27
2022-11-18T15:58:57.116Z,13.23
2022-11-18T16:01:26.035Z,11.03
2022-11-18T16:03:54.226Z,11.80
2022-11-18T16:06:21.919Z,11.50
2022-11-18T16:08:50.376Z,10.43
2022-11-18T16:11:40.535Z,11.47
2022-11-18T16:14:09.749Z,10.40
2022-11-18T16:16:39.055Z,10.57
2022-11-18T16:19:08.996Z,10.87
2022-11-18T16:21:39.872Z,9.63
2022-11-18T16:24:12.416Z,10.13
2022-11-18T16:26:41.296Z,10.33
2022-11-18T16:29:15.083Z,9.17
2022-11-18T16:31:44.820Z,7.80
2022-11-18T16:34:14.164Z,7.60
2022-11-18T16:36:44.236Z,8.27
2022-11-18T16:39:24.017Z,8.50
2022-11-18T16:41:53.974Z,7.40
2022-11-18T16:44:35.844Z,6.73
2022-11-18T16:47:07.695Z,6.80
2022-11-18T16:49:37.716Z,6.23
2022-11-18T16:52:08.045Z,7.17
2022-11-18T16:54:38.259Z,6.47
2022-11-18T16:57:09.666Z,6.60
2022-11-18T16:59:36.789Z,6.53
2022-11-18T17:02:04.153Z,6.83
2022-11-18T17:04:31.554Z,5.77
2022-11-18T17:07:02.156Z,6.73
2022-11-18T17:09:30.092Z,6.27
2022-11-18T17:12:04.485Z,5.90
2022-11-18T17:14:58.354Z,6.07
2022-11-18T17:17:25.406Z,5.83
2022-11-18T17:19:52.455Z,5.80
2022-11-18T17:22:26.973Z,6.07
2022-11-18T17:24:53.986Z,5.30
2022-11-18T17:27:20.953Z,6.17
2022-11-18T17:29:50.666Z,5.73
2022-11-18T17:32:18.961Z,5.27
2022-11-18T17:34:46.984Z,10.40
2022-11-18T17:37:14.022Z,5.40
2022-11-18T17:39:40.970Z,8.40
2022-11-18T17:42:13.919Z,5.77
2022-11-18T17:44:40.941Z,5.40
2022-11-18T17:47:07.940Z,5.33
2022-11-18T17:49:36.277Z,5.13
2022-11-18T17:52:03.291Z,4.83
2022-11-18T17:54:30.247Z,4.80
2022-11-18T17:56:57.353Z,5.23
2022-11-18T17:59:24.505Z,5.77
2022-11-18T18:01:57.568Z,5.87
2022-11-18T18:04:26.321Z,4.57
2022-11-18T18:06:55.180Z,4.13
2022-11-18T18:09:30.515Z,5.47
2022-11-18T18:11:59.462Z,7.00
2022-11-18T18:14:26.815Z,4.10
2022-11-18T18:16:54.049Z,4.77
2022-11-18T18:19:23.149Z,4.47
2022-11-18T18:21:50.731Z,4.00
2022-11-18T18:24:20.825Z,3.77
2022-11-18T18:26:48.844Z,4.03
2022-11-18T18:29:16.081Z,4.97
2022-11-18T18:31:48.899Z,4.40
2022-11-18T18:34:19.828Z,4.17
2022-11-18T18:36:46.824Z,4.30
2022-11-18T18:39:13.830Z,4.40
2022-11-18T18:41:42.180Z,3.70
2022-11-18T18:44:16.888Z,4.33
2022-11-18T18:46:45.472Z,3.80
2022-11-18T18:49:15.741Z,3.73
2022-11-18T18:51:44.910Z,4.07
2022-11-18T18:54:15.493Z,3.70
2022-11-18T18:56:44.399Z,4.80
2022-11-18T18:59:11.883Z,4.07
2022-11-18T19:01:39.720Z,4.43
2022-11-18T19:04:11.173Z,3.93
2022-11-18T19:09:26.922Z,4.40
2022-11-18T19:12:14.333Z,4.07
2022-11-18T19:14:41.790Z,4.10
2022-11-18T19:17:11.707Z,4.50
2022-11-18T19:20:00.291Z,4.27
2022-11-18T19:22:30.551Z,4.77
2022-11-18T19:24:58.449Z,4.83
2022-11-18T19:27:27.956Z,3.93
2022-11-18T19:29:55.091Z,5.20
2022-11-18T19:32:22.245Z,4.70
2022-11-18T19:34:49.290Z,4.97
2022-11-18T19:37:16.303Z,4.27
2022-11-18T19:39:43.328Z,4.73
2022-11-18T19:42:10.911Z,4.70
2022-11-18T19:44:39.603Z,4.90
2022-11-18T19:47:06.698Z,4.57
2022-11-18T19:49:33.706Z,4.90
2022-11-18T19:52:00.621Z,4.50
2022-11-18T19:54:27.625Z,4.83
2022-11-18T19:56:54.835Z,4.40
2022-11-18T19:59:21.943Z,4.27
2022-11-18T20:01:50.386Z,4.50
2022-11-18T20:04:17.487Z,4.97
2022-11-18T20:06:45.520Z,4.57
2022-11-18T20:09:13.258Z,5.03
2022-11-18T20:11:40.460Z,4.93
2022-11-18T20:14:08.253Z,4.47
2022-11-18T20:16:37.451Z,5.03
2022-11-18T20:19:10.688Z,5.50
2022-11-18T20:21:38.920Z,6.17
2022-11-18T20:24:08.014Z,4.73
2022-11-18T20:26:38.464Z,4.90
2022-11-18T20:29:06.530Z,5.50
2022-11-18T20:31:34.020Z,4.87
2022-11-18T20:34:02.293Z,4.93
2022-11-18T20:36:32.965Z,5.10
2022-11-18T20:39:02.647Z,5.13
2022-11-18T20:41:31.066Z,5.07
2022-11-18T20:43:58.653Z,4.80
2022-11-18T20:46:26.212Z,6.40
2022-11-18T20:48:53.731Z,5.00
2022-11-18T20:51:23.492Z,4.73
2022-11-18T20:53:54.685Z,4.67
2022-11-18T20:56:24.250Z,4.90
2022-11-18T20:58:51.437Z,4.93
2022-11-18T21:01:21.624Z,4.87
2022-11-18T21:03:54.917Z,5.60
2022-11-18T21:06:28.624Z,5.60
2022-11-18T21:08:59.593Z,5.33
2022-11-18T21:11:27.744Z,5.93
2022-11-18T21:14:17.126Z,5.80
2022-11-18T21:16:47.898Z,5.07
2022-11-18T21:19:15.365Z,5.43
2022-11-18T21:21:45.059Z,5.37
2022-11-18T21:24:15.393Z,5.33
2022-11-18T21:26:43.304Z,6.07
2022-11-18T21:29:13.157Z,5.70
2022-11-18T21:31:41.323Z,5.57
2022-11-18T21:34:10.027Z,5.60
2022-11-18T21:36:42.996Z,5.97
2022-11-18T21:39:14.820Z,6.07
2022-11-18T21:41:42.349Z,4.63
2022-11-18T21:44:11.805Z,5.27
2022-11-18T21:46:41.284Z,5.27
2022-11-18T21:49:08.890Z,4.83
2022-11-18T21:51:36.441Z,5.73
2022-11-18T21:54:04.211Z,5.20
2022-11-18T21:56:32.891Z,5.30
2022-11-18T21:59:02.185Z,5.37
2022-11-18T22:01:32.279Z,5.53
2022-11-18T22:04:02.218Z,5.67
2022-11-18T22:06:31.466Z,6.10
2022-11-18T22:08:58.877Z,5.80
2022-11-18T22:11:25.919Z,5.37
2022-11-18T22:13:54.249Z,5.47
2022-11-18T22:16:24.153Z,5.20
2022-11-18T22:18:59.196Z,5.70
2022-11-18T22:21:29.815Z,5.87
2022-11-18T22:23:59.342Z,5.40
2022-11-18T22:26:26.678Z,5.37
2022-11-18T22:28:57.481Z,5.73
2022-11-18T22:31:27.824Z,6.03
2022-11-18T22:33:56.176Z,5.60
2022-11-18T22:36:26.270Z,4.83
2022-11-18T22:38:54.024Z,5.63
2022-11-18T22:41:42.345Z,6.33
2022-11-18T22:44:13.762Z,6.67
2022-11-18T22:46:42.870Z,6.50
2022-11-18T22:49:11.997Z,5.53
2022-11-18T22:51:40.102Z,5.83
2022-11-18T22:56:55.687Z,5.80
2022-11-18T22:59:24.806Z,6.33
2022-11-18T23:01:53.019Z,6.07
2022-11-18T23:04:20.050Z,5.90
2022-11-18T23:06:48.288Z,6.07
2022-11-18T23:09:15.752Z,6.17
2022-11-18T23:12:01.435Z,6.00
2022-11-18T23:14:29.763Z,6.17
2022-11-18T23:16:56.821Z,5.70
2022-11-18T23:19:23.783Z,6.73
2022-11-18T23:21:50.817Z,6.17
2022-11-18T23:24:19.389Z,5.13
2022-11-18T23:26:47.003Z,6.37
2022-11-18T23:29:15.743Z,5.60
2022-11-18T23:31:45.178Z,5.90
2022-11-18T23:34:15.537Z,5.70
2022-11-18T23:36:43.544Z,5.83
2022-11-18T23:39:11.346Z,5.07
2022-11-18T23:41:38.931Z,5.90
2022-11-18T23:44:06.678Z,5.87
2022-11-18T23:46:34.429Z,5.70
2022-11-18T23:49:02.751Z,5.40
2022-11-18T23:51:29.762Z,6.20
2022-11-18T23:53:57.727Z,5.27
2022-11-18T23:56:26.921Z,6.27
2022-11-18T23:58:56.507Z,6.37
